TimeEST,TemperatureF,Dew PointF,Humidity,Sea Level PressureIn,VisibilityMPH,Wind Direction,Wind SpeedMPH,Gust SpeedMPH,PrecipitationIn,Events,Conditions,WindDirDegrees,DateUTC
12:53 AM,52.0,39.9,63,30.22,10.0,East,8.1,-,N/A,,Clear,100,2013-02-10 05:53:00
1:53 AM,51.1,39.9,66,30.22,10.0,East,4.6,-,N/A,,Clear,100,2013-02-10 06:53:00
2:53 AM,50.0,39.9,68,30.22,10.0,East,3.5,-,N/A,,Clear,100,2013-02-10 07:53:00
3:53 AM,48.0,39.0,71,30.21,10.0,Calm,Calm,-,N/A,,Clear,0,2013-02-10 08:53:00
4:53 AM,46.9,39.9,77,30.19,10.0,Calm,Calm,-,N/A,,Clear,0,2013-02-10 09:53:00
5:53 AM,45.0,39.0,80,30.21,10.0,Calm,Calm,-,N/A,,Clear,0,2013-02-10 10:53:00
6:53 AM,44.6,39.2,81,30.23,10.0,Calm,Calm,-,N/A,,Partly Cloudy,0,2013-02-10 11:53:00
7:53 AM,46.9,42.1,83,30.25,10.0,Calm,Calm,-,N/A,,Mostly Cloudy,0,2013-02-10 12:53:00
8:53 AM,54.0,46.0,75,30.24,10.0,ESE,6.9,-,N/A,,Scattered Clouds,110,2013-02-10 13:53:00
9:53 AM,61.0,48.9,64,30.26,10.0,ESE,10.4,-,N/A,,Mostly Cloudy,110,2013-02-10 14:53:00
10:53 AM,64.9,50.0,58,30.25,10.0,SE,10.4,-,N/A,,Overcast,130,2013-02-10 15:53:00
11:53 AM,69.1,52.0,54,30.23,10.0,SSE,10.4,-,N/A,,Overcast,150,2013-02-10 16:53:00
12:53 PM,72.0,54.0,53,30.22,10.0,SSE,13.8,23.0,N/A,,Overcast,150,2013-02-10 17:53:00
1:53 PM,73.0,55.0,53,30.18,10.0,SSE,12.7,29.9,N/A,,Mostly Cloudy,160,2013-02-10 18:53:00
2:53 PM,73.0,55.9,55,30.16,10.0,South,16.1,27.6,N/A,,Scattered Clouds,170,2013-02-10 19:53:00
3:53 PM,73.9,54.0,50,30.14,10.0,South,18.4,27.6,N/A,,Overcast,170,2013-02-10 20:53:00
4:53 PM,72.0,55.0,55,30.11,10.0,SSE,16.1,21.9,N/A,,Scattered Clouds,150,2013-02-10 21:53:00
5:53 PM,71.1,55.0,57,30.11,10.0,SSE,9.2,18.4,N/A,,Partly Cloudy,150,2013-02-10 22:53:00
6:53 PM,69.1,55.9,63,30.12,10.0,SSE,8.1,-,N/A,,Scattered Clouds,160,2013-02-10 23:53:00
7:53 PM,66.9,55.9,68,30.12,10.0,South,6.9,-,N/A,,Mostly Cloudy,180,2013-02-11 00:53:00
8:53 PM,66.0,57.0,73,30.13,10.0,SSE,5.8,-,N/A,,Overcast,150,2013-02-11 01:53:00
9:53 PM,66.9,57.9,73,30.10,10.0,SSE,12.7,-,N/A,,Partly Cloudy,160,2013-02-11 02:53:00
10:53 PM,66.9,57.9,73,30.11,10.0,South,6.9,-,N/A,,Clear,180,2013-02-11 03:53:00
11:53 PM,70.0,57.0,63,30.12,10.0,South,9.2,-,N/A,,Overcast,180,2013-02-11 04:53:00